sensor_id;sensor_type;location;lat;lon;timestamp;P1;durP1;ratioP1;P2;durP2;ratioP2
33459;SDS011;19795;53.160;6.612;2023-01-10T00:02:11;11.02;;;2.53;;
33459;SDS011;19795;53.160;6.612;2023-01-10T00:04:37;16.15;;;3.15;;
33459;SDS011;19795;53.160;6.612;2023-01-10T00:07:03;13.73;;;3.55;;
33459;SDS011;19795;53.160;6.612;2023-01-10T00:09:29;12.60;;;3.03;;
33459;SDS011;19795;53.160;6.612;2023-01-10T05:21:53;17.13;;;4.07;;
33459;SDS011;19795;53.160;6.612;2023-01-10T05:27:36;12.95;;;3.42;;
33459;SDS011;19795;53.160;6.612;2023-01-10T05:30:06;16.58;;;3.88;;
33459;SDS011;19795;53.160;6.612;2023-01-10T05:32:36;16.77;;;3.58;;
33459;SDS011;19795;53.160;6.612;2023-01-10T05:35:02;11.70;;;3.22;;
33459;SDS011;19795;53.160;6.612;2023-01-10T05:37:28;12.98;;;3.67;;
33459;SDS011;19795;53.160;6.612;2023-01-10T05:39:53;13.77;;;3.72;;
33459;SDS011;19795;53.160;6.612;2023-01-10T05:42:19;20.40;;;5.18;;
33459;SDS011;19795;53.160;6.612;2023-01-10T05:44:45;16.05;;;4.75;;
33459;SDS011;19795;53.160;6.612;2023-01-10T05:47:10;23.92;;;4.82;;
33459;SDS011;19795;53.160;6.612;2023-01-10T05:49:36;19.25;;;5.13;;
33459;SDS011;19795;53.160;6.612;2023-01-10T05:52:02;12.77;;;3.83;;
33459;SDS011;19795;53.160;6.612;2023-01-10T05:54:28;13.70;;;4.18;;
33459;SDS011;19795;53.160;6.612;2023-01-10T05:56:53;14.77;;;3.72;;
33459;SDS011;19795;53.160;6.612;2023-01-10T05:59:19;17.45;;;4.38;;
33459;SDS011;19795;53.160;6.612;2023-01-10T06:01:45;17.98;;;4.40;;
33459;SDS011;19795;53.160;6.612;2023-01-10T06:04:10;17.40;;;4.80;;
33459;SDS011;19795;53.160;6.612;2023-01-10T06:06:36;17.75;;;4.65;;
33459;SDS011;19795;53.160;6.612;2023-01-10T06:09:01;17.25;;;5.07;;
33459;SDS011;19795;53.160;6.612;2023-01-10T06:11:27;18.92;;;5.45;;
33459;SDS011;19795;53.160;6.612;2023-01-10T06:13:55;22.98;;;5.45;;
33459;SDS011;19795;53.160;6.612;2023-01-10T06:16:23;20.80;;;5.25;;
33459;SDS011;19795;53.160;6.612;2023-01-10T06:18:50;20.35;;;5.70;;
33459;SDS011;19795;53.160;6.612;2023-01-10T06:21:15;21.00;;;4.88;;
33459;SDS011;19795;53.160;6.612;2023-01-10T06:23:41;20.63;;;5.03;;
33459;SDS011;19795;53.160;6.612;2023-01-10T06:26:07;21.60;;;4.40;;
33459;SDS011;19795;53.160;6.612;2023-01-10T06:28:32;16.27;;;4.28;;
33459;SDS011;19795;53.160;6.612;2023-01-10T06:30:58;13.88;;;3.95;;
33459;SDS011;19795;53.160;6.612;2023-01-10T06:33:24;11.60;;;3.80;;
33459;SDS011;19795;53.160;6.612;2023-01-10T06:35:50;16.95;;;4.57;;
33459;SDS011;19795;53.160;6.612;2023-01-10T06:38:16;12.63;;;3.90;;
33459;SDS011;19795;53.160;6.612;2023-01-10T06:40:42;12.80;;;3.80;;
33459;SDS011;19795;53.160;6.612;2023-01-10T06:43:08;12.75;;;3.67;;
33459;SDS011;19795;53.160;6.612;2023-01-10T06:45:33;21.77;;;4.47;;
33459;SDS011;19795;53.160;6.612;2023-01-10T06:47:59;18.38;;;3.70;;
33459;SDS011;19795;53.160;6.612;2023-01-10T06:50:25;12.43;;;3.88;;
33459;SDS011;19795;53.160;6.612;2023-01-10T06:53:12;20.95;;;4.30;;
33459;SDS011;19795;53.160;6.612;2023-01-10T06:55:36;13.25;;;3.15;;
33459;SDS011;19795;53.160;6.612;2023-01-10T06:58:02;10.27;;;2.83;;
33459;SDS011;19795;53.160;6.612;2023-01-10T07:00:29;9.52;;;3.35;;
33459;SDS011;19795;53.160;6.612;2023-01-10T07:02:58;10.40;;;3.03;;
33459;SDS011;19795;53.160;6.612;2023-01-10T07:05:25;15.82;;;3.45;;
33459;SDS011;19795;53.160;6.612;2023-01-10T07:07:51;15.40;;;3.30;;
33459;SDS011;19795;53.160;6.612;2023-01-10T07:10:17;15.68;;;3.78;;
33459;SDS011;19795;53.160;6.612;2023-01-10T07:12:43;11.18;;;3.25;;
33459;SDS011;19795;53.160;6.612;2023-01-10T07:15:08;14.15;;;4.05;;
33459;SDS011;19795;53.160;6.612;2023-01-10T07:17:34;12.98;;;3.38;;
33459;SDS011;19795;53.160;6.612;2023-01-10T07:20:00;19.65;;;4.57;;
33459;SDS011;19795;53.160;6.612;2023-01-10T07:22:25;12.77;;;4.00;;
33459;SDS011;19795;53.160;6.612;2023-01-10T07:24:51;19.90;;;4.82;;
33459;SDS011;19795;53.160;6.612;2023-01-10T07:27:18;15.68;;;5.03;;
33459;SDS011;19795;53.160;6.612;2023-01-10T07:29:44;17.77;;;4.65;;
33459;SDS011;19795;53.160;6.612;2023-01-10T07:32:10;22.48;;;6.22;;
33459;SDS011;19795;53.160;6.612;2023-01-10T07:34:35;14.73;;;4.88;;
33459;SDS011;19795;53.160;6.612;2023-01-10T07:37:01;24.67;;;5.72;;
33459;SDS011;19795;53.160;6.612;2023-01-10T07:39:26;23.60;;;5.22;;
33459;SDS011;19795;53.160;6.612;2023-01-10T07:41:52;16.27;;;5.07;;
33459;SDS011;19795;53.160;6.612;2023-01-10T07:44:18;20.02;;;5.03;;
33459;SDS011;19795;53.160;6.612;2023-01-10T07:46:43;17.70;;;6.25;;
33459;SDS011;19795;53.160;6.612;2023-01-10T07:49:09;24.75;;;5.80;;
33459;SDS011;19795;53.160;6.612;2023-01-10T07:51:35;21.52;;;6.05;;
33459;SDS011;19795;53.160;6.612;2023-01-10T07:54:01;29.92;;;7.25;;
33459;SDS011;19795;53.160;6.612;2023-01-10T07:56:27;27.17;;;6.82;;
33459;SDS011;19795;53.160;6.612;2023-01-10T07:58:53;24.88;;;6.72;;
33459;SDS011;19795;53.160;6.612;2023-01-10T08:01:18;25.80;;;6.97;;
33459;SDS011;19795;53.160;6.612;2023-01-10T08:03:45;27.55;;;6.95;;
33459;SDS011;19795;53.160;6.612;2023-01-10T08:06:10;30.45;;;6.55;;
33459;SDS011;19795;53.160;6.612;2023-01-10T08:08:36;29.23;;;7.63;;
33459;SDS011;19795;53.160;6.612;2023-01-10T08:11:03;25.90;;;6.82;;
33459;SDS011;19795;53.160;6.612;2023-01-10T08:13:29;25.20;;;6.28;;
33459;SDS011;19795;53.160;6.612;2023-01-10T08:15:55;29.63;;;7.75;;
33459;SDS011;19795;53.160;6.612;2023-01-10T08:18:21;21.38;;;5.82;;
33459;SDS011;19795;53.160;6.612;2023-01-10T08:20:48;27.30;;;6.70;;
33459;SDS011;19795;53.160;6.612;2023-01-10T08:23:15;27.13;;;7.28;;
33459;SDS011;19795;53.160;6.612;2023-01-10T08:25:41;20.58;;;6.05;;
33459;SDS011;19795;53.160;6.612;2023-01-10T08:28:07;27.17;;;6.15;;
33459;SDS011;19795;53.160;6.612;2023-01-10T08:30:32;20.98;;;6.85;;
33459;SDS011;19795;53.160;6.612;2023-01-10T08:33:00;23.67;;;6.32;;
33459;SDS011;19795;53.160;6.612;2023-01-10T08:35:27;33.95;;;7.18;;
33459;SDS011;19795;53.160;6.612;2023-01-10T08:37:57;33.40;;;6.90;;
33459;SDS011;19795;53.160;6.612;2023-01-10T08:40:24;24.75;;;6.05;;
33459;SDS011;19795;53.160;6.612;2023-01-10T08:42:56;31.88;;;6.55;;
33459;SDS011;19795;53.160;6.612;2023-01-10T08:45:26;31.45;;;6.18;;
33459;SDS011;19795;53.160;6.612;2023-01-10T08:47:52;26.88;;;6.38;;
33459;SDS011;19795;53.160;6.612;2023-01-10T08:50:18;25.10;;;6.65;;
33459;SDS011;19795;53.160;6.612;2023-01-10T08:52:44;24.33;;;5.55;;
33459;SDS011;19795;53.160;6.612;2023-01-10T08:55:09;24.75;;;5.68;;
33459;SDS011;19795;53.160;6.612;2023-01-10T08:57:35;26.17;;;6.05;;
33459;SDS011;19795;53.160;6.612;2023-01-10T09:00:01;24.92;;;5.80;;
33459;SDS011;19795;53.160;6.612;2023-01-10T09:02:28;27.15;;;6.00;;
33459;SDS011;19795;53.160;6.612;2023-01-10T09:04:53;21.98;;;6.00;;
33459;SDS011;19795;53.160;6.612;2023-01-10T09:07:19;32.08;;;6.75;;
33459;SDS011;19795;53.160;6.612;2023-01-10T09:09:45;25.08;;;6.40;;
33459;SDS011;19795;53.160;6.612;2023-01-10T09:12:10;27.45;;;6.15;;
33459;SDS011;19795;53.160;6.612;2023-01-10T09:14:55;20.23;;;5.97;;
33459;SDS011;19795;53.160;6.612;2023-01-10T09:17:20;27.83;;;6.03;;
33459;SDS011;19795;53.160;6.612;2023-01-10T09:19:46;22.25;;;6.13;;
33459;SDS011;19795;53.160;6.612;2023-01-10T09:22:12;25.33;;;5.85;;
33459;SDS011;19795;53.160;6.612;2023-01-10T09:24:37;20.23;;;5.65;;
33459;SDS011;19795;53.160;6.612;2023-01-10T09:27:03;21.70;;;5.53;;
33459;SDS011;19795;53.160;6.612;2023-01-10T09:29:29;23.13;;;6.30;;
33459;SDS011;19795;53.160;6.612;2023-01-10T09:31:54;22.58;;;5.55;;
33459;SDS011;19795;53.160;6.612;2023-01-10T09:34:20;21.90;;;5.57;;
33459;SDS011;19795;53.160;6.612;2023-01-10T09:36:49;24.75;;;5.70;;
33459;SDS011;19795;53.160;6.612;2023-01-10T09:39:14;22.13;;;5.32;;
33459;SDS011;19795;53.160;6.612;2023-01-10T09:47:17;21.65;;;5.55;;
33459;SDS011;19795;53.160;6.612;2023-01-10T09:52:32;18.55;;;5.80;;
33459;SDS011;19795;53.160;6.612;2023-01-10T09:55:47;17.65;;;5.75;;
33459;SDS011;19795;53.160;6.612;2023-01-10T09:57:51;19.75;;;5.82;;
33459;SDS011;19795;53.160;6.612;2023-01-10T10:00:20;22.10;;;5.72;;
33459;SDS011;19795;53.160;6.612;2023-01-10T10:03:01;21.25;;;5.43;;
33459;SDS011;19795;53.160;6.612;2023-01-10T10:05:42;17.42;;;5.25;;
33459;SDS011;19795;53.160;6.612;2023-01-10T10:08:08;18.55;;;5.05;;
33459;SDS011;19795;53.160;6.612;2023-01-10T10:10:42;21.75;;;5.25;;
33459;SDS011;19795;53.160;6.612;2023-01-10T10:18:55;25.25;;;5.00;;
33459;SDS011;19795;53.160;6.612;2023-01-10T10:21:45;15.10;;;3.95;;
33459;SDS011;19795;53.160;6.612;2023-01-10T10:24:28;20.90;;;4.32;;
33459;SDS011;19795;53.160;6.612;2023-01-10T10:26:59;19.95;;;4.57;;
33459;SDS011;19795;53.160;6.612;2023-01-10T10:32:26;15.38;;;4.20;;
33459;SDS011;19795;53.160;6.612;2023-01-10T10:37:31;21.58;;;4.60;;
33459;SDS011;19795;53.160;6.612;2023-01-10T10:42:40;23.65;;;4.97;;
33459;SDS011;19795;53.160;6.612;2023-01-10T10:45:16;18.65;;;3.83;;
33459;SDS011;19795;53.160;6.612;2023-01-10T10:47:45;13.75;;;3.33;;
33459;SDS011;19795;53.160;6.612;2023-01-10T10:50:18;17.90;;;4.07;;
33459;SDS011;19795;53.160;6.612;2023-01-10T10:52:56;18.20;;;3.92;;
33459;SDS011;19795;53.160;6.612;2023-01-10T10:55:30;13.90;;;4.03;;
33459;SDS011;19795;53.160;6.612;2023-01-10T10:57:59;17.67;;;3.83;;
33459;SDS011;19795;53.160;6.612;2023-01-10T11:00:26;12.30;;;3.25;;
33459;SDS011;19795;53.160;6.612;2023-01-10T11:02:55;14.30;;;3.47;;
33459;SDS011;19795;53.160;6.612;2023-01-10T11:05:36;15.07;;;3.65;;
33459;SDS011;19795;53.160;6.612;2023-01-10T11:08:07;20.48;;;4.05;;
33459;SDS011;19795;53.160;6.612;2023-01-10T11:10:38;15.88;;;3.30;;
33459;SDS011;19795;53.160;6.612;2023-01-10T11:15:45;21.77;;;5.15;;
33459;SDS011;19795;53.160;6.612;2023-01-10T11:18:14;17.80;;;5.15;;
33459;SDS011;19795;53.160;6.612;2023-01-10T11:23:51;20.98;;;5.32;;
33459;SDS011;19795;53.160;6.612;2023-01-10T11:26:23;16.30;;;5.03;;
33459;SDS011;19795;53.160;6.612;2023-01-10T11:28:50;18.08;;;5.38;;
33459;SDS011;19795;53.160;6.612;2023-01-10T11:31:25;25.08;;;5.80;;
33459;SDS011;19795;53.160;6.612;2023-01-10T11:33:52;20.67;;;5.22;;
33459;SDS011;19795;53.160;6.612;2023-01-10T11:36:19;23.02;;;5.65;;
33459;SDS011;19795;53.160;6.612;2023-01-10T11:38:59;21.80;;;6.00;;
33459;SDS011;19795;53.160;6.612;2023-01-10T11:41:26;17.88;;;5.25;;
33459;SDS011;19795;53.160;6.612;2023-01-10T11:44:13;24.15;;;6.10;;
33459;SDS011;19795;53.160;6.612;2023-01-10T11:46:42;17.90;;;5.32;;
33459;SDS011;19795;53.160;6.612;2023-01-10T11:49:10;21.63;;;6.03;;
33459;SDS011;19795;53.160;6.612;2023-01-10T11:54:22;15.60;;;6.38;;
33459;SDS011;19795;53.160;6.612;2023-01-10T11:56:57;21.92;;;6.22;;
33459;SDS011;19795;53.160;6.612;2023-01-10T11:59:29;15.52;;;5.80;;
33459;SDS011;19795;53.160;6.612;2023-01-10T12:04:29;25.42;;;6.60;;
33459;SDS011;19795;53.160;6.612;2023-01-10T12:07:03;21.65;;;5.97;;
33459;SDS011;19795;53.160;6.612;2023-01-10T12:12:35;20.23;;;5.60;;
33459;SDS011;19795;53.160;6.612;2023-01-10T12:15:00;19.15;;;5.38;;
33459;SDS011;19795;53.160;6.612;2023-01-10T12:17:45;16.38;;;5.15;;
33459;SDS011;19795;53.160;6.612;2023-01-10T12:20:12;18.58;;;5.88;;
33459;SDS011;19795;53.160;6.612;2023-01-10T12:22:39;21.30;;;6.20;;
33459;SDS011;19795;53.160;6.612;2023-01-10T12:25:17;19.83;;;6.28;;
33459;SDS011;19795;53.160;6.612;2023-01-10T12:27:51;22.08;;;6.63;;
33459;SDS011;19795;53.160;6.612;2023-01-10T12:32:51;20.17;;;6.00;;
33459;SDS011;19795;53.160;6.612;2023-01-10T12:35:23;17.48;;;5.60;;
33459;SDS011;19795;53.160;6.612;2023-01-10T12:38:01;15.93;;;5.68;;
33459;SDS011;19795;53.160;6.612;2023-01-10T12:40:46;20.10;;;5.85;;
33459;SDS011;19795;53.160;6.612;2023-01-10T12:43:17;23.65;;;6.55;;
33459;SDS011;19795;53.160;6.612;2023-01-10T12:49:27;26.33;;;5.72;;
33459;SDS011;19795;53.160;6.612;2023-01-10T12:51:40;22.45;;;5.22;;
33459;SDS011;19795;53.160;6.612;2023-01-10T12:54:13;20.95;;;4.90;;
33459;SDS011;19795;53.160;6.612;2023-01-10T12:56:43;24.20;;;5.20;;
33459;SDS011;19795;53.160;6.612;2023-01-10T12:59:18;27.40;;;4.88;;
33459;SDS011;19795;53.160;6.612;2023-01-10T13:01:52;19.40;;;4.68;;
33459;SDS011;19795;53.160;6.612;2023-01-10T13:04:26;16.38;;;4.70;;
33459;SDS011;19795;53.160;6.612;2023-01-10T13:06:53;20.02;;;4.50;;
33459;SDS011;19795;53.160;6.612;2023-01-10T13:09:21;19.23;;;4.90;;
33459;SDS011;19795;53.160;6.612;2023-01-10T13:11:53;25.02;;;5.70;;
33459;SDS011;19795;53.160;6.612;2023-01-10T13:14:27;18.60;;;4.90;;
33459;SDS011;19795;53.160;6.612;2023-01-10T13:17:06;18.20;;;4.63;;
33459;SDS011;19795;53.160;6.612;2023-01-10T13:22:29;16.55;;;4.60;;
33459;SDS011;19795;53.160;6.612;2023-01-10T13:25:00;22.50;;;4.95;;
33459;SDS011;19795;53.160;6.612;2023-01-10T13:27:29;20.27;;;3.95;;
33459;SDS011;19795;53.160;6.612;2023-01-10T13:29:56;14.95;;;4.15;;
33459;SDS011;19795;53.160;6.612;2023-01-10T13:34:48;18.02;;;4.03;;
33459;SDS011;19795;53.160;6.612;2023-01-10T13:39:52;18.95;;;4.15;;
33459;SDS011;19795;53.160;6.612;2023-01-10T13:52:51;19.00;;;4.50;;
33459;SDS011;19795;53.160;6.612;2023-01-10T14:00:23;20.13;;;4.25;;
33459;SDS011;19795;53.160;6.612;2023-01-10T14:06:08;24.33;;;4.10;;
33459;SDS011;19795;53.160;6.612;2023-01-10T14:09:38;19.30;;;4.60;;
33459;SDS011;19795;53.160;6.612;2023-01-10T14:16:54;21.50;;;4.30;;
33459;SDS011;19795;53.160;6.612;2023-01-10T14:19:42;24.33;;;5.10;;
33459;SDS011;19795;53.160;6.612;2023-01-10T14:22:23;21.13;;;4.55;;
33459;SDS011;19795;53.160;6.612;2023-01-10T14:24:50;21.95;;;4.35;;
33459;SDS011;19795;53.160;6.612;2023-01-10T14:27:17;25.27;;;4.38;;
33459;SDS011;19795;53.160;6.612;2023-01-10T14:29:55;18.95;;;3.70;;
33459;SDS011;19795;53.160;6.612;2023-01-10T14:32:30;16.63;;;3.75;;
33459;SDS011;19795;53.160;6.612;2023-01-10T14:35:13;19.38;;;3.20;;
33459;SDS011;19795;53.160;6.612;2023-01-10T14:37:50;22.27;;;4.30;;
33459;SDS011;19795;53.160;6.612;2023-01-10T14:40:27;17.17;;;3.03;;
33459;SDS011;19795;53.160;6.612;2023-01-10T14:42:56;19.27;;;3.63;;
33459;SDS011;19795;53.160;6.612;2023-01-10T14:48:46;16.77;;;3.20;;
33459;SDS011;19795;53.160;6.612;2023-01-10T14:51:09;15.30;;;3.03;;
33459;SDS011;19795;53.160;6.612;2023-01-10T14:53:42;22.05;;;4.03;;
33459;SDS011;19795;53.160;6.612;2023-01-10T14:56:21;18.15;;;3.08;;
33459;SDS011;19795;53.160;6.612;2023-01-10T14:58:49;20.05;;;3.60;;
33459;SDS011;19795;53.160;6.612;2023-01-10T15:01:17;21.80;;;3.20;;
33459;SDS011;19795;53.160;6.612;2023-01-10T15:03:51;18.92;;;3.30;;
33459;SDS011;19795;53.160;6.612;2023-01-10T15:06:17;19.73;;;3.20;;
33459;SDS011;19795;53.160;6.612;2023-01-10T15:08:43;14.07;;;2.95;;
33459;SDS011;19795;53.160;6.612;2023-01-10T15:11:09;18.40;;;3.33;;
33459;SDS011;19795;53.160;6.612;2023-01-10T15:13:47;16.02;;;2.55;;
33459;SDS011;19795;53.160;6.612;2023-01-10T15:16:18;18.25;;;4.10;;
33459;SDS011;19795;53.160;6.612;2023-01-10T15:18:47;14.90;;;3.22;;
33459;SDS011;19795;53.160;6.612;2023-01-10T15:21:14;21.50;;;3.55;;
33459;SDS011;19795;53.160;6.612;2023-01-10T15:23:43;20.65;;;3.03;;
33459;SDS011;19795;53.160;6.612;2023-01-10T15:26:13;15.35;;;3.20;;
33459;SDS011;19795;53.160;6.612;2023-01-10T15:28:43;14.82;;;3.25;;
33459;SDS011;19795;53.160;6.612;2023-01-10T15:31:13;19.55;;;3.60;;
33459;SDS011;19795;53.160;6.612;2023-01-10T15:33:42;15.63;;;2.97;;
33459;SDS011;19795;53.160;6.612;2023-01-10T15:36:23;12.50;;;3.10;;
33459;SDS011;19795;53.160;6.612;2023-01-10T15:38:51;15.35;;;2.60;;
33459;SDS011;19795;53.160;6.612;2023-01-10T15:41:18;17.40;;;3.15;;
33459;SDS011;19795;53.160;6.612;2023-01-10T15:43:47;15.00;;;2.85;;
33459;SDS011;19795;53.160;6.612;2023-01-10T15:46:20;18.08;;;3.33;;
33459;SDS011;19795;53.160;6.612;2023-01-10T15:48:57;20.40;;;3.57;;
33459;SDS011;19795;53.160;6.612;2023-01-10T15:51:32;17.20;;;2.90;;
33459;SDS011;19795;53.160;6.612;2023-01-10T15:56:50;16.58;;;2.70;;
33459;SDS011;19795;53.160;6.612;2023-01-10T15:59:34;20.00;;;3.00;;
33459;SDS011;19795;53.160;6.612;2023-01-10T16:04:46;14.73;;;3.17;;
33459;SDS011;19795;53.160;6.612;2023-01-10T16:07:15;16.52;;;3.38;;
33459;SDS011;19795;53.160;6.612;2023-01-10T16:10:00;14.30;;;3.10;;
33459;SDS011;19795;53.160;6.612;2023-01-10T16:12:36;17.10;;;3.35;;
33459;SDS011;19795;53.160;6.612;2023-01-10T16:15:22;17.95;;;3.15;;
33459;SDS011;19795;53.160;6.612;2023-01-10T16:17:50;17.75;;;3.13;;
33459;SDS011;19795;53.160;6.612;2023-01-10T16:20:16;15.30;;;3.13;;
33459;SDS011;19795;53.160;6.612;2023-01-10T16:22:44;17.15;;;3.45;;
33459;SDS011;19795;53.160;6.612;2023-01-10T16:25:15;19.83;;;3.42;;
33459;SDS011;19795;53.160;6.612;2023-01-10T16:27:48;13.73;;;3.25;;
33459;SDS011;19795;53.160;6.612;2023-01-10T16:30:21;19.65;;;3.45;;
33459;SDS011;19795;53.160;6.612;2023-01-10T16:32:51;16.30;;;4.10;;
33459;SDS011;19795;53.160;6.612;2023-01-10T16:35:18;17.98;;;3.50;;
33459;SDS011;19795;53.160;6.612;2023-01-10T16:37:45;17.67;;;3.58;;
33459;SDS011;19795;53.160;6.612;2023-01-10T16:40:15;15.80;;;3.33;;
33459;SDS011;19795;53.160;6.612;2023-01-10T16:42:41;18.13;;;3.67;;
33459;SDS011;19795;53.160;6.612;2023-01-10T16:45:25;16.70;;;3.78;;
33459;SDS011;19795;53.160;6.612;2023-01-10T16:47:51;19.58;;;3.50;;
33459;SDS011;19795;53.160;6.612;2023-01-10T16:50:17;16.80;;;3.00;;
33459;SDS011;19795;53.160;6.612;2023-01-10T16:52:44;18.40;;;3.33;;
33459;SDS011;19795;53.160;6.612;2023-01-10T16:55:17;15.98;;;3.45;;
33459;SDS011;19795;53.160;6.612;2023-01-10T16:57:45;17.15;;;3.78;;
33459;SDS011;19795;53.160;6.612;2023-01-10T17:00:13;20.20;;;5.15;;
33459;SDS011;19795;53.160;6.612;2023-01-10T17:02:39;15.65;;;3.72;;
33459;SDS011;19795;53.160;6.612;2023-01-10T17:05:08;11.82;;;2.90;;
33459;SDS011;19795;53.160;6.612;2023-01-10T17:07:34;15.20;;;3.80;;
33459;SDS011;19795;53.160;6.612;2023-01-10T17:10:00;13.45;;;3.30;;
33459;SDS011;19795;53.160;6.612;2023-01-10T17:12:30;15.73;;;3.47;;
33459;SDS011;19795;53.160;6.612;2023-01-10T17:14:59;14.30;;;3.92;;
33459;SDS011;19795;53.160;6.612;2023-01-10T17:17:27;17.25;;;4.07;;
33459;SDS011;19795;53.160;6.612;2023-01-10T17:19:54;15.27;;;3.97;;
33459;SDS011;19795;53.160;6.612;2023-01-10T17:22:19;18.55;;;4.07;;
33459;SDS011;19795;53.160;6.612;2023-01-10T17:24:45;14.48;;;3.83;;
33459;SDS011;19795;53.160;6.612;2023-01-10T17:27:10;15.23;;;3.83;;
33459;SDS011;19795;53.160;6.612;2023-01-10T17:29:36;10.00;;;2.85;;
33459;SDS011;19795;53.160;6.612;2023-01-10T17:32:02;15.20;;;3.80;;
33459;SDS011;19795;53.160;6.612;2023-01-10T17:34:28;14.90;;;3.97;;
33459;SDS011;19795;53.160;6.612;2023-01-10T17:36:55;13.45;;;3.40;;
33459;SDS011;19795;53.160;6.612;2023-01-10T17:39:20;12.65;;;3.63;;
33459;SDS011;19795;53.160;6.612;2023-01-10T17:41:47;12.45;;;3.42;;
33459;SDS011;19795;53.160;6.612;2023-01-10T17:44:12;12.27;;;3.72;;
33459;SDS011;19795;53.160;6.612;2023-01-10T17:46:38;13.23;;;3.40;;
33459;SDS011;19795;53.160;6.612;2023-01-10T17:49:04;12.95;;;3.28;;
33459;SDS011;19795;53.160;6.612;2023-01-10T17:51:29;12.27;;;3.70;;
33459;SDS011;19795;53.160;6.612;2023-01-10T17:53:55;13.30;;;3.72;;
33459;SDS011;19795;53.160;6.612;2023-01-10T17:56:21;9.88;;;3.53;;
33459;SDS011;19795;53.160;6.612;2023-01-10T17:58:47;12.65;;;3.53;;
33459;SDS011;19795;53.160;6.612;2023-01-10T18:01:16;9.30;;;3.00;;
33459;SDS011;19795;53.160;6.612;2023-01-10T18:03:43;8.55;;;2.97;;
33459;SDS011;19795;53.160;6.612;2023-01-10T18:06:09;11.90;;;3.30;;
33459;SDS011;19795;53.160;6.612;2023-01-10T18:08:35;18.25;;;3.63;;
33459;SDS011;19795;53.160;6.612;2023-01-10T18:11:00;7.22;;;2.80;;
33459;SDS011;19795;53.160;6.612;2023-01-10T18:13:27;10.35;;;2.95;;
33459;SDS011;19795;53.160;6.612;2023-01-10T18:15:56;10.68;;;3.13;;
33459;SDS011;19795;53.160;6.612;2023-01-10T18:18:22;8.40;;;2.88;;
33459;SDS011;19795;53.160;6.612;2023-01-10T18:20:50;10.10;;;3.28;;
33459;SDS011;19795;53.160;6.612;2023-01-10T18:23:20;8.20;;;2.53;;
33459;SDS011;19795;53.160;6.612;2023-01-10T18:25:54;9.85;;;3.30;;
33459;SDS011;19795;53.160;6.612;2023-01-10T18:28:28;6.15;;;2.40;;
33459;SDS011;19795;53.160;6.612;2023-01-10T18:31:03;9.45;;;2.70;;
33459;SDS011;19795;53.160;6.612;2023-01-10T18:33:30;8.48;;;2.38;;
33459;SDS011;19795;53.160;6.612;2023-01-10T18:35:56;11.85;;;2.65;;
33459;SDS011;19795;53.160;6.612;2023-01-10T18:38:22;7.65;;;2.30;;
33459;SDS011;19795;53.160;6.612;2023-01-10T18:40:51;9.23;;;2.70;;
33459;SDS011;19795;53.160;6.612;2023-01-10T18:43:17;5.57;;;2.08;;
33459;SDS011;19795;53.160;6.612;2023-01-10T18:45:43;7.18;;;2.78;;
33459;SDS011;19795;53.160;6.612;2023-01-10T18:48:11;8.30;;;2.03;;
33459;SDS011;19795;53.160;6.612;2023-01-10T18:50:40;7.65;;;2.42;;
33459;SDS011;19795;53.160;6.612;2023-01-10T18:53:07;8.38;;;2.63;;
33459;SDS011;19795;53.160;6.612;2023-01-10T18:55:33;4.53;;;1.95;;
33459;SDS011;19795;53.160;6.612;2023-01-10T18:57:59;8.15;;;2.72;;
33459;SDS011;19795;53.160;6.612;2023-01-10T19:00:25;4.65;;;2.05;;
33459;SDS011;19795;53.160;6.612;2023-01-10T19:02:51;7.13;;;2.58;;
33459;SDS011;19795;53.160;6.612;2023-01-10T19:05:18;6.65;;;2.30;;
33459;SDS011;19795;53.160;6.612;2023-01-10T19:07:44;4.05;;;2.17;;
33459;SDS011;19795;53.160;6.612;2023-01-10T19:10:10;7.53;;;2.78;;
33459;SDS011;19795;53.160;6.612;2023-01-10T19:12:37;5.15;;;2.72;;
33459;SDS011;19795;53.160;6.612;2023-01-10T19:15:06;3.13;;;2.00;;
33459;SDS011;19795;53.160;6.612;2023-01-10T19:17:33;5.82;;;3.08;;
33459;SDS011;19795;53.160;6.612;2023-01-10T19:19:58;4.20;;;2.25;;
33459;SDS011;19795;53.160;6.612;2023-01-10T19:22:24;4.57;;;2.65;;
33459;SDS011;19795;53.160;6.612;2023-01-10T19:24:50;6.95;;;2.83;;
33459;SDS011;19795;53.160;6.612;2023-01-10T19:27:16;4.90;;;2.63;;
33459;SDS011;19795;53.160;6.612;2023-01-10T19:29:42;5.32;;;2.65;;
33459;SDS011;19795;53.160;6.612;2023-01-10T19:32:12;6.20;;;2.78;;
33459;SDS011;19795;53.160;6.612;2023-01-10T19:34:37;3.88;;;2.30;;
33459;SDS011;19795;53.160;6.612;2023-01-10T19:37:03;5.40;;;2.67;;
33459;SDS011;19795;53.160;6.612;2023-01-10T19:39:30;4.78;;;3.00;;
33459;SDS011;19795;53.160;6.612;2023-01-10T19:41:56;4.85;;;2.67;;
33459;SDS011;19795;53.160;6.612;2023-01-10T19:44:22;5.32;;;2.78;;
33459;SDS011;19795;53.160;6.612;2023-01-10T19:46:47;3.13;;;2.47;;
33459;SDS011;19795;53.160;6.612;2023-01-10T19:49:14;3.03;;;2.53;;
33459;SDS011;19795;53.160;6.612;2023-01-10T19:51:44;3.78;;;2.88;;
33459;SDS011;19795;53.160;6.612;2023-01-10T19:54:15;2.90;;;2.58;;
33459;SDS011;19795;53.160;6.612;2023-01-10T19:56:41;4.50;;;2.83;;
33459;SDS011;19795;53.160;6.612;2023-01-10T19:59:07;6.00;;;2.78;;
33459;SDS011;19795;53.160;6.612;2023-01-10T20:01:34;6.72;;;3.28;;
33459;SDS011;19795;53.160;6.612;2023-01-10T20:04:01;4.63;;;2.58;;
33459;SDS011;19795;53.160;6.612;2023-01-10T20:06:28;4.93;;;3.00;;
33459;SDS011;19795;53.160;6.612;2023-01-10T20:08:55;5.13;;;3.25;;
33459;SDS011;19795;53.160;6.612;2023-01-10T20:11:22;5.43;;;3.20;;
33459;SDS011;19795;53.160;6.612;2023-01-10T20:13:49;4.57;;;3.10;;
33459;SDS011;19795;53.160;6.612;2023-01-10T20:16:17;5.28;;;3.30;;
33459;SDS011;19795;53.160;6.612;2023-01-10T20:18:44;4.90;;;3.60;;
33459;SDS011;19795;53.160;6.612;2023-01-10T20:21:11;6.93;;;4.90;;
33459;SDS011;19795;53.160;6.612;2023-01-10T20:23:38;6.60;;;4.45;;
33459;SDS011;19795;53.160;6.612;2023-01-10T20:26:15;6.93;;;4.25;;
33459;SDS011;19795;53.160;6.612;2023-01-10T20:28:43;5.70;;;4.30;;
33459;SDS011;19795;53.160;6.612;2023-01-10T20:31:11;4.53;;;4.13;;
33459;SDS011;19795;53.160;6.612;2023-01-10T20:33:39;5.60;;;3.92;;
33459;SDS011;19795;53.160;6.612;2023-01-10T20:36:06;4.43;;;4.03;;
33459;SDS011;19795;53.160;6.612;2023-01-10T20:38:35;4.78;;;4.22;;
33459;SDS011;19795;53.160;6.612;2023-01-10T20:41:03;5.30;;;4.75;;
33459;SDS011;19795;53.160;6.612;2023-01-10T20:43:30;5.65;;;4.85;;
33459;SDS011;19795;53.160;6.612;2023-01-10T20:46:01;5.57;;;4.95;;
33459;SDS011;19795;53.160;6.612;2023-01-10T20:48:28;7.82;;;5.15;;
33459;SDS011;19795;53.160;6.612;2023-01-10T20:50:54;5.78;;;5.28;;
33459;SDS011;19795;53.160;6.612;2023-01-10T20:53:20;5.80;;;5.25;;
33459;SDS011;19795;53.160;6.612;2023-01-10T20:55:46;6.97;;;6.25;;
33459;SDS011;19795;53.160;6.612;2023-01-10T20:58:11;6.28;;;5.68;;
33459;SDS011;19795;53.160;6.612;2023-01-10T21:00:37;6.00;;;5.35;;
33459;SDS011;19795;53.160;6.612;2023-01-10T21:03:03;9.63;;;6.97;;
33459;SDS011;19795;53.160;6.612;2023-01-10T21:05:30;8.35;;;6.75;;
33459;SDS011;19795;53.160;6.612;2023-01-10T21:07:55;8.38;;;7.50;;
33459;SDS011;19795;53.160;6.612;2023-01-10T21:10:21;8.40;;;7.57;;
33459;SDS011;19795;53.160;6.612;2023-01-10T21:12:47;10.40;;;9.30;;
33459;SDS011;19795;53.160;6.612;2023-01-10T21:15:13;11.45;;;10.25;;
33459;SDS011;19795;53.160;6.612;2023-01-10T21:17:39;12.77;;;10.52;;
33459;SDS011;19795;53.160;6.612;2023-01-10T21:20:07;11.48;;;10.30;;
33459;SDS011;19795;53.160;6.612;2023-01-10T21:22:34;14.43;;;11.23;;
33459;SDS011;19795;53.160;6.612;2023-01-10T21:25:00;12.15;;;10.60;;